Time;durP1;ratioP1;P1;durP2;ratioP2;P2;SDS_P1;SDS_P2;PMS_P1;PMS_P2;Temp;Humidity;BMP_temperature;BMP_pressure;BME280_temperature;BME280_humidity;BME280_pressure;Samples;Min_cycle;Max_cycle;Signal;HPM_P1;HPM_P2
2022/07/21 00:01:12;;;;;;;11.33;10.33;;;26.70;74.10;;;;;;5060586;28;20559;-69
2022/07/21 00:03:41;;;;;;;10.90;9.80;;;26.70;74.00;;;;;;5051906;28;20546;-69
2022/07/21 00:06:09;;;;;;;11.40;9.90;;;26.60;74.80;;;;;;5052521;28;20858;-70
2022/07/21 00:08:39;;;;;;;11.10;10.30;;;26.60;75.10;;;;;;5055980;28;21261;-69
2022/07/21 00:11:10;;;;;;;11.70;10.60;;;26.60;75.00;;;;;;5061719;28;20480;-69
2022/07/21 00:13:38;;;;;;;10.73;9.77;;;26.60;74.00;;;;;;5050461;28;21201;-69
2022/07/21 00:16:10;;;;;;;12.87;9.97;;;26.40;74.50;;;;;;5052747;28;20469;-69
2022/07/21 00:18:38;;;;;;;10.70;9.77;;;26.40;74.20;;;;;;5051138;28;20487;-69
2022/07/21 00:21:12;;;;;;;11.03;10.13;;;26.40;74.40;;;;;;5051759;28;20489;-69
2022/07/21 00:23:42;;;;;;;11.47;10.47;;;26.30;74.30;;;;;;5052137;28;20432;-69
2022/07/21 00:26:10;;;;;;;10.87;9.83;;;26.30;74.40;;;;;;5052406;28;20437;-69
2022/07/21 00:28:38;;;;;;;11.70;10.80;;;26.30;74.50;;;;;;5055801;28;20495;-69
2022/07/21 00:31:13;;;;;;;11.40;10.40;;;26.30;74.30;;;;;;5072856;28;20899;-69
2022/07/21 00:33:41;;;;;;;11.97;10.97;;;26.30;74.40;;;;;;5070801;28;20430;-69
2022/07/21 00:36:09;;;;;;;11.67;10.50;;;26.20;74.30;;;;;;5072108;28;20931;-69
2022/07/21 00:38:38;;;;;;;11.17;10.23;;;26.10;75.00;;;;;;5067288;28;20574;-69
2022/07/21 00:41:20;;;;;;;11.77;10.70;;;26.00;75.00;;;;;;5052009;28;20433;-69
2022/07/21 00:43:48;;;;;;;11.83;10.80;;;25.90;75.40;;;;;;5051908;28;20485;-69
2022/07/21 00:46:16;;;;;;;13.60;12.50;;;25.90;75.50;;;;;;5051098;28;20525;-69
2022/07/21 00:48:45;;;;;;;11.90;10.80;;;25.90;75.70;;;;;;5056360;28;20466;-69
2022/07/21 00:51:13;;;;;;;11.87;10.80;;;25.90;75.80;;;;;;5060592;28;20534;-68
2022/07/21 00:53:41;;;;;;;13.10;11.83;;;25.90;75.70;;;;;;5060713;28;21076;-69
2022/07/21 00:56:10;;;;;;;14.20;12.90;;;25.90;75.50;;;;;;5051946;28;20488;-69
2022/07/21 00:58:40;;;;;;;14.57;11.60;;;25.80;76.10;;;;;;5055261;28;20570;-68
2022/07/21 01:01:12;;;;;;;12.93;11.73;;;25.80;75.80;;;;;;5063896;28;20460;-68
2022/07/21 01:03:40;;;;;;;12.77;11.77;;;25.80;75.60;;;;;;5048988;28;20455;-69
2022/07/21 01:06:11;;;;;;;13.10;11.70;;;25.80;76.10;;;;;;5052146;28;20517;-69
2022/07/21 01:08:39;;;;;;;11.37;10.37;;;25.80;76.10;;;;;;5053530;28;20464;-69
2022/07/21 01:11:11;;;;;;;12.17;11.17;;;25.80;76.40;;;;;;5051914;28;20883;-68
2022/07/21 01:13:43;;;;;;;13.77;12.50;;;25.90;76.20;;;;;;5051905;28;20420;-69
2022/07/21 01:16:11;;;;;;;12.37;11.17;;;25.90;76.00;;;;;;5051777;28;20441;-69
2022/07/21 01:18:40;;;;;;;11.67;10.77;;;25.90;76.00;;;;;;5065164;28;20500;-69
2022/07/21 01:21:32;;;;;;;11.47;10.50;;;26.00;75.70;;;;;;5063718;28;20498;-69
2022/07/21 01:24:01;;;;;;;11.57;10.57;;;26.00;75.60;;;;;;5057329;28;20545;-69
2022/07/21 01:26:30;;;;;;;12.63;11.53;;;25.90;75.50;;;;;;5071814;28;20431;-69
2022/07/21 01:28:59;;;;;;;13.70;12.60;;;25.90;75.40;;;;;;5066442;28;20460;-69
2022/07/21 01:31:27;;;;;;;14.60;13.10;;;25.90;75.50;;;;;;5061081;28;20952;-69
2022/07/21 01:33:55;;;;;;;13.73;12.53;;;25.90;75.50;;;;;;5054483;28;20458;-69
2022/07/21 01:36:23;;;;;;;15.47;14.13;;;26.00;75.20;;;;;;5055765;28;20486;-69
2022/07/21 01:41:39;;;;;;;17.30;15.60;;;26.10;75.00;;;;;;5069907;28;20777;-69
2022/07/21 01:44:09;;;;;;;15.10;13.77;;;26.10;75.00;;;;;;5055530;28;20546;-69
2022/07/21 01:46:39;;;;;;;16.77;15.30;;;26.10;75.20;;;;;;5055141;28;20450;-69
2022/07/21 01:49:08;;;;;;;16.50;15.20;;;26.10;75.30;;;;;;5061218;28;20496;-69
2022/07/21 01:51:36;;;;;;;17.23;15.67;;;26.00;75.00;;;;;;5067881;28;20824;-69
2022/07/21 01:54:07;;;;;;;17.00;15.50;;;26.00;75.40;;;;;;5073913;28;20457;-69
2022/07/21 01:56:36;;;;;;;16.40;15.03;;;26.00;74.80;;;;;;5075148;28;20438;-69
2022/07/21 01:59:06;;;;;;;15.67;14.27;;;26.00;75.10;;;;;;5073822;28;20812;-69
2022/07/21 02:01:35;;;;;;;14.63;13.33;;;26.00;75.10;;;;;;5074776;28;20461;-69
2022/07/21 02:04:05;;;;;;;15.37;14.17;;;26.00;75.10;;;;;;5064920;28;20842;-69
2022/07/21 02:06:34;;;;;;;16.37;14.97;;;26.10;75.00;;;;;;5064743;28;20451;-70
2022/07/21 02:09:02;;;;;;;16.70;15.20;;;26.10;74.70;;;;;;5057761;28;20887;-69
2022/07/21 02:11:32;;;;;;;15.73;14.30;;;26.10;75.00;;;;;;5073413;28;20513;-70
2022/07/21 02:14:01;;;;;;;16.50;15.20;;;26.10;75.10;;;;;;5054764;28;20447;-69
2022/07/21 02:16:29;;;;;;;18.03;16.63;;;26.00;75.00;;;;;;5056469;28;20442;-69
2022/07/21 02:18:58;;;;;;;18.17;16.67;;;25.90;75.20;;;;;;5061500;28;20549;-69
2022/07/21 02:21:26;;;;;;;26.83;24.53;;;25.90;75.50;;;;;;5062812;28;20538;-69
2022/07/21 02:23:54;;;;;;;29.23;26.63;;;25.80;75.80;;;;;;5053832;28;20435;-69
2022/07/21 02:26:23;;;;;;;33.10;30.00;;;25.80;75.50;;;;;;5071204;28;20456;-69
2022/07/21 02:28:52;;;;;;;35.70;32.70;;;25.80;75.80;;;;;;5073383;28;20542;-69
2022/07/21 02:31:21;;;;;;;22.10;20.30;;;25.80;75.90;;;;;;5074394;28;20534;-69
2022/07/21 02:33:49;;;;;;;19.63;18.03;;;25.80;75.70;;;;;;5074051;28;20435;-69
2022/07/21 02:36:18;;;;;;;17.03;15.20;;;25.70;76.00;;;;;;5073528;28;20494;-69
2022/07/21 02:38:46;;;;;;;19.57;17.87;;;25.70;75.90;;;;;;5070924;28;20896;-69
2022/07/21 02:41:14;;;;;;;19.23;17.40;;;25.70;75.90;;;;;;5074692;28;20522;-69
2022/07/21 02:43:42;;;;;;;16.40;15.00;;;25.80;75.90;;;;;;5072662;28;20486;-69
2022/07/21 02:46:12;;;;;;;19.37;17.67;;;25.80;75.90;;;;;;5074364;28;20467;-69
2022/07/21 02:48:40;;;;;;;18.53;16.87;;;25.80;76.00;;;;;;5071294;28;20445;-71
2022/07/21 02:51:09;;;;;;;17.63;16.03;;;25.80;75.60;;;;;;5063058;28;20491;-69
2022/07/21 02:53:37;;;;;;;18.10;16.20;;;25.80;75.90;;;;;;5059040;28;21019;-68
2022/07/21 02:56:12;;;;;;;18.33;16.83;;;25.70;76.20;;;;;;5064515;28;20463;-70
2022/07/21 02:58:40;;;;;;;17.73;16.03;;;25.70;76.20;;;;;;5073979;28;20809;-68
2022/07/21 03:01:18;;;;;;;20.00;18.20;;;25.70;76.60;;;;;;5073532;28;20959;-68
2022/07/21 03:03:47;;;;;;;21.00;19.03;;;25.60;76.50;;;;;;5070424;28;20466;-68
2022/07/21 03:06:15;;;;;;;20.07;18.37;;;25.60;76.80;;;;;;5069841;28;20557;-69
2022/07/21 03:08:43;;;;;;;18.60;16.90;;;25.60;76.90;;;;;;5053063;28;20465;-69
2022/07/21 03:11:12;;;;;;;18.03;16.43;;;25.50;77.00;;;;;;5053531;28;20507;-68
2022/07/21 03:13:40;;;;;;;20.00;18.00;;;25.60;77.00;;;;;;5053818;28;20813;-68
2022/07/21 03:16:12;;;;;;;18.30;16.70;;;25.60;76.60;;;;;;5062145;28;20463;-68
2022/07/21 03:18:42;;;;;;;20.70;18.83;;;25.60;76.40;;;;;;5073320;28;20966;-68
2022/07/21 03:21:10;;;;;;;27.33;25.07;;;25.60;76.70;;;;;;5068532;28;20465;-68
2022/07/21 03:23:39;;;;;;;30.93;28.33;;;25.60;76.90;;;;;;5072674;28;20909;-68
2022/07/21 03:26:13;;;;;;;32.40;29.43;;;25.60;76.60;;;;;;5072551;28;20492;-68
2022/07/21 03:28:43;;;;;;;28.63;25.97;;;25.60;76.90;;;;;;5073250;28;20429;-68
2022/07/21 03:31:11;;;;;;;25.87;23.37;;;25.60;76.50;;;;;;5073220;28;20442;-68
2022/07/21 03:33:41;;;;;;;21.27;19.27;;;25.60;77.00;;;;;;5072377;28;20864;-68
2022/07/21 03:36:12;;;;;;;20.90;18.90;;;25.60;76.90;;;;;;5073581;28;20435;-68
2022/07/21 03:38:40;;;;;;;20.90;18.80;;;25.60;76.80;;;;;;5071958;28;20437;-68
2022/07/21 03:41:09;;;;;;;21.77;19.77;;;25.60;76.90;;;;;;5060814;28;20484;-68
2022/07/21 03:43:40;;;;;;;19.63;17.83;;;25.60;77.10;;;;;;5065430;28;20457;-68
2022/07/21 03:46:14;;;;;;;20.07;17.57;;;25.50;77.00;;;;;;5072886;28;20418;-68
2022/07/21 03:48:44;;;;;;;19.27;17.43;;;25.60;76.80;;;;;;5073124;28;20475;-68
2022/07/21 03:51:22;;;;;;;19.90;18.03;;;25.60;76.90;;;;;;5058652;28;20498;-68
2022/07/21 03:53:51;;;;;;;19.70;17.70;;;25.60;76.90;;;;;;5061007;28;20452;-68
2022/07/21 03:56:19;;;;;;;20.57;18.50;;;25.50;77.20;;;;;;5052764;28;20430;-68
2022/07/21 03:58:47;;;;;;;20.70;18.67;;;25.50;77.30;;;;;;5070235;28;20469;-68
2022/07/21 04:01:15;;;;;;;18.57;16.87;;;25.50;77.20;;;;;;5060199;28;20962;-68
2022/07/21 04:03:45;;;;;;;20.30;18.50;;;25.50;77.30;;;;;;5053560;28;20455;-68
2022/07/21 04:06:13;;;;;;;20.03;17.93;;;25.50;77.10;;;;;;5057886;28;20459;-69
2022/07/21 04:08:42;;;;;;;17.73;16.00;;;25.50;77.00;;;;;;5054191;28;20851;-68
2022/07/21 04:11:10;;;;;;;18.87;17.10;;;25.50;77.30;;;;;;5056459;28;20860;-68
2022/07/21 04:13:38;;;;;;;20.30;18.30;;;25.40;77.60;;;;;;5056924;28;20585;-70
2022/07/21 04:16:13;;;;;;;21.23;19.20;;;25.40;77.60;;;;;;5055631;28;20941;-68
2022/07/21 04:18:41;;;;;;;21.40;19.40;;;25.50;77.60;;;;;;5051656;28;20442;-68
2022/07/21 04:21:13;;;;;;;20.70;18.83;;;25.50;77.50;;;;;;5051054;28;20538;-68
2022/07/21 04:23:42;;;;;;;23.13;20.90;;;25.50;77.50;;;;;;5050546;28;20460;-68
2022/07/21 04:26:10;;;;;;;21.53;19.50;;;25.50;77.60;;;;;;5055835;28;20453;-68
2022/07/21 04:28:38;;;;;;;23.93;21.50;;;25.40;77.50;;;;;;5066972;28;20586;-68
2022/07/21 04:33:50;;;;;;;25.60;23.03;;;25.40;77.70;;;;;;5059878;28;20448;-68
2022/07/21 04:36:25;;;;;;;27.60;23.67;;;25.40;78.00;;;;;;5056801;28;20508;-68
2022/07/21 04:38:54;;;;;;;26.17;23.63;;;25.40;77.80;;;;;;5050660;28;20491;-68
2022/07/21 04:41:26;;;;;;;27.43;24.63;;;25.40;77.40;;;;;;5052111;28;20470;-69
2022/07/21 04:43:54;;;;;;;23.93;21.70;;;25.40;77.80;;;;;;5052752;28;20562;-69
2022/07/21 04:46:23;;;;;;;24.13;21.80;;;25.50;77.30;;;;;;5059442;28;20552;-69
2022/07/21 04:48:52;;;;;;;24.37;22.17;;;25.50;77.50;;;;;;5056849;28;20454;-69
2022/07/21 04:51:20;;;;;;;23.03;21.13;;;25.50;77.80;;;;;;5053532;28;20510;-69
2022/07/21 04:53:50;;;;;;;21.57;19.67;;;25.50;77.50;;;;;;5052781;28;20499;-70
2022/07/21 04:56:25;;;;;;;22.97;20.77;;;25.50;77.60;;;;;;5053865;28;20451;-69
2022/07/21 04:58:53;;;;;;;24.93;22.53;;;25.60;77.30;;;;;;5052658;28;20963;-70
2022/07/21 05:01:25;;;;;;;34.63;31.40;;;25.40;78.00;;;;;;5059891;28;20471;-69
2022/07/21 05:03:53;;;;;;;35.47;32.40;;;25.40;77.70;;;;;;5070492;28;20459;-69
2022/07/21 05:06:21;;;;;;;27.40;24.67;;;25.50;77.10;;;;;;5060571;28;20484;-69
2022/07/21 05:08:55;;;;;;;25.30;23.13;;;25.50;76.80;;;;;;5059137;28;20459;-69
2022/07/21 05:11:27;;;;;;;24.60;22.40;;;25.50;77.60;;;;;;5055759;28;20454;-69
2022/07/21 05:13:57;;;;;;;15.67;14.07;;;25.70;77.00;;;;;;5069393;28;20637;-69
2022/07/21 05:16:34;;;;;;;17.83;16.10;;;25.80;76.20;;;;;;5055762;28;20458;-69
2022/07/21 05:19:02;;;;;;;18.93;16.80;;;25.90;76.10;;;;;;5059528;28;20999;-69
2022/07/21 05:21:30;;;;;;;19.17;17.40;;;26.00;76.40;;;;;;5066935;28;20518;-69
2022/07/21 05:24:00;;;;;;;21.13;19.23;;;26.10;76.50;;;;;;5057534;28;20529;-72
2022/07/21 05:26:31;;;;;;;21.83;19.73;;;26.10;76.30;;;;;;5056775;28;20826;-69
2022/07/21 05:28:59;;;;;;;19.33;17.70;;;26.00;76.80;;;;;;5055548;28;20523;-69
2022/07/21 05:31:27;;;;;;;23.70;21.37;;;25.90;77.00;;;;;;5054787;28;20465;-69
2022/07/21 05:33:56;;;;;;;25.93;23.70;;;26.00;77.00;;;;;;5062107;28;20462;-69
2022/07/21 05:36:30;;;;;;;25.53;23.23;;;25.90;76.80;;;;;;5055323;28;20456;-69
2022/07/21 05:39:00;;;;;;;26.90;24.70;;;25.90;76.30;;;;;;5056102;28;20816;-69
2022/07/21 05:41:28;;;;;;;22.67;20.60;;;25.80;76.90;;;;;;5058731;28;20476;-70
2022/07/21 05:43:56;;;;;;;22.10;20.27;;;25.90;76.30;;;;;;5058091;28;20549;-69
2022/07/21 05:46:24;;;;;;;23.80;21.73;;;25.80;76.60;;;;;;5061722;28;20451;-69
2022/07/21 05:48:55;;;;;;;21.87;20.00;;;25.80;76.60;;;;;;5053733;28;20521;-70
2022/07/21 05:51:23;;;;;;;23.77;21.77;;;25.80;76.50;;;;;;5053930;28;20492;-69
2022/07/21 05:53:51;;;;;;;26.33;23.67;;;25.80;76.70;;;;;;5053076;28;20445;-69
2022/07/21 05:56:30;;;;;;;23.27;20.70;;;25.90;76.50;;;;;;5056531;28;20497;-69
2022/07/21 05:58:58;;;;;;;24.10;22.10;;;25.80;76.10;;;;;;5060137;28;20510;-69
2022/07/21 06:01:26;;;;;;;20.10;18.07;;;25.80;76.50;;;;;;5057757;28;20476;-69
2022/07/21 06:03:55;;;;;;;18.93;17.20;;;25.70;76.90;;;;;;5057558;28;20449;-69
2022/07/21 06:06:24;;;;;;;18.03;16.40;;;25.80;77.40;;;;;;5059813;28;20515;-69
2022/07/21 06:08:53;;;;;;;17.10;15.60;;;25.90;76.90;;;;;;5059950;28;20472;-69
2022/07/21 06:11:22;;;;;;;17.67;16.00;;;25.80;76.70;;;;;;5060527;28;20448;-69
2022/07/21 06:13:51;;;;;;;17.43;15.93;;;25.80;76.60;;;;;;5057610;28;20496;-71
2022/07/21 06:16:30;;;;;;;19.10;16.03;;;25.80;76.60;;;;;;5057185;28;20875;-69
2022/07/21 06:18:58;;;;;;;16.67;15.00;;;25.90;76.60;;;;;;5059532;28;20487;-70
2022/07/21 06:21:30;;;;;;;15.57;14.20;;;25.90;76.10;;;;;;5055980;28;20463;-69
2022/07/21 06:23:58;;;;;;;13.70;12.50;;;25.90;75.90;;;;;;5055617;28;20899;-71
2022/07/21 06:26:26;;;;;;;14.10;12.77;;;26.00;75.70;;;;;;5057707;28;20545;-69
2022/07/21 06:28:56;;;;;;;14.30;13.10;;;26.00;75.20;;;;;;5058457;28;20460;-70
2022/07/21 06:31:27;;;;;;;14.60;13.20;;;25.90;75.00;;;;;;5058040;28;20942;-69
2022/07/21 06:33:56;;;;;;;14.07;12.60;;;26.00;75.30;;;;;;5053413;28;20858;-69
2022/07/21 06:36:24;;;;;;;12.17;11.20;;;26.00;75.20;;;;;;5062959;28;20455;-69
2022/07/21 06:38:52;;;;;;;12.97;11.93;;;26.10;74.30;;;;;;5056496;28;20484;-69
2022/07/21 06:41:27;;;;;;;13.50;12.30;;;26.10;74.10;;;;;;5057834;28;20648;-71
2022/07/21 06:43:56;;;;;;;13.10;12.00;;;26.10;74.30;;;;;;5054366;28;20483;-69
2022/07/21 06:46:27;;;;;;;12.60;11.50;;;26.20;74.00;;;;;;5061275;28;20455;-69
2022/07/21 06:48:56;;;;;;;13.30;12.03;;;26.20;73.60;;;;;;5054809;28;20848;-69
2022/07/21 06:51:33;;;;;;;11.10;10.20;;;26.20;73.60;;;;;;5054666;28;20530;-70
2022/07/21 06:54:01;;;;;;;12.30;11.10;;;26.30;73.30;;;;;;5062893;28;20456;-69
2022/07/21 06:56:30;;;;;;;12.17;11.10;;;26.30;73.50;;;;;;5070858;28;20512;-69
2022/07/21 06:58:59;;;;;;;11.50;10.50;;;26.30;74.40;;;;;;5057638;28;20467;-68
2022/07/21 07:01:27;;;;;;;14.03;12.63;;;26.30;74.00;;;;;;5052893;28;20441;-69
2022/07/21 07:03:56;;;;;;;12.60;11.50;;;26.30;74.70;;;;;;5054604;28;20817;-69
2022/07/21 07:06:27;;;;;;;12.63;11.33;;;26.30;74.50;;;;;;5066148;28;20460;-69
2022/07/21 07:08:55;;;;;;;12.43;11.17;;;26.40;73.90;;;;;;5066067;28;20514;-69
2022/07/21 07:11:42;;;;;;;11.80;10.80;;;26.50;73.30;;;;;;5066717;28;20462;-69
2022/07/21 07:14:32;;;;;;;10.63;9.73;;;26.50;73.40;;;;;;5064269;28;20823;-69
2022/07/21 07:17:00;;;;;;;10.83;9.80;;;26.60;73.20;;;;;;5060771;28;20449;-68
2022/07/21 07:19:29;;;;;;;11.17;10.30;;;26.50;73.20;;;;;;5061034;28;20980;-68
2022/07/21 07:21:58;;;;;;;11.53;10.43;;;26.60;73.20;;;;;;5057430;28;20477;-69
2022/07/21 07:24:26;;;;;;;10.30;9.50;;;26.60;73.70;;;;;;5051193;28;20901;-68
2022/07/21 07:26:56;;;;;;;10.53;9.50;;;26.60;73.10;;;;;;5066848;28;20457;-69
2022/07/21 07:29:24;;;;;;;10.47;9.47;;;26.70;73.40;;;;;;5069365;28;20487;-69
2022/07/21 07:31:54;;;;;;;11.10;10.13;;;26.70;72.80;;;;;;5061989;28;20504;-68
2022/07/21 07:34:22;;;;;;;10.97;10.07;;;26.70;72.20;;;;;;5055991;28;20455;-69
2022/07/21 07:36:51;;;;;;;10.73;9.73;;;26.70;72.20;;;;;;5067057;28;20464;-68
2022/07/21 07:39:19;;;;;;;11.10;10.20;;;26.80;72.10;;;;;;5061815;28;20785;-68
2022/07/21 07:41:47;;;;;;;10.83;9.93;;;26.90;72.00;;;;;;5063416;28;20449;-68
2022/07/21 07:44:16;;;;;;;11.60;10.60;;;26.90;71.70;;;;;;5061142;28;20450;-69
2022/07/21 07:46:44;;;;;;;12.67;11.57;;;26.90;71.80;;;;;;5054584;28;20476;-69
2022/07/21 07:49:14;;;;;;;12.43;11.43;;;26.80;71.50;;;;;;5056655;28;20450;-69
2022/07/21 07:51:46;;;;;;;9.87;9.07;;;26.80;71.40;;;;;;5056387;28;20482;-69
2022/07/21 07:54:14;;;;;;;12.87;11.33;;;26.80;71.40;;;;;;5052048;28;20457;-70
2022/07/21 07:56:43;;;;;;;11.60;10.70;;;26.90;71.40;;;;;;5059169;28;20547;-69
2022/07/21 07:59:11;;;;;;;10.77;9.87;;;26.90;71.30;;;;;;5059265;28;20853;-70
2022/07/21 08:01:39;;;;;;;11.60;10.50;;;26.90;71.50;;;;;;5067857;28;20456;-70
2022/07/21 08:04:08;;;;;;;11.67;10.73;;;26.90;71.20;;;;;;5053207;28;20481;-70
2022/07/21 08:06:40;;;;;;;11.80;11.00;;;26.90;71.50;;;;;;5062983;28;20449;-69
2022/07/21 08:09:09;;;;;;;9.53;8.83;;;27.00;71.10;;;;;;5057029;28;20501;-70
2022/07/21 08:11:37;;;;;;;12.13;11.00;;;27.00;72.70;;;;;;5062438;28;20488;-69
2022/07/21 08:14:05;;;;;;;12.70;11.40;;;27.00;72.80;;;;;;5059660;28;20454;-69
2022/07/21 08:16:35;;;;;;;11.53;10.63;;;27.00;72.50;;;;;;5061057;28;20451;-70
2022/07/21 08:19:03;;;;;;;9.87;9.07;;;27.00;71.90;;;;;;5069777;28;20472;-69
2022/07/21 08:21:35;;;;;;;9.37;8.47;;;27.10;71.90;;;;;;5062891;28;20569;-74
2022/07/21 08:24:24;;;;;;;10.53;9.63;;;27.20;71.40;;;;;;5065059;28;20562;-68
2022/07/21 08:26:53;;;;;;;13.80;12.50;;;27.30;72.00;;;;;;5064106;28;20520;-69
2022/07/21 08:29:21;;;;;;;10.87;9.97;;;27.40;71.80;;;;;;5070055;28;20497;-68
2022/07/21 08:31:50;;;;;;;11.47;10.57;;;27.40;72.00;;;;;;5060310;28;20450;-68
2022/07/21 08:34:18;;;;;;;10.10;9.30;;;27.50;71.50;;;;;;5058017;28;20463;-69
2022/07/21 08:36:46;;;;;;;11.80;10.70;;;27.50;71.40;;;;;;5058723;28;20500;-68
2022/07/21 08:39:14;;;;;;;10.50;9.60;;;27.50;70.90;;;;;;5056288;28;20524;-69
2022/07/21 08:41:44;;;;;;;12.47;11.37;;;27.50;71.10;;;;;;5060242;28;20438;-69
2022/07/21 08:44:19;;;;;;;11.77;10.90;;;27.50;70.20;;;;;;5063348;28;20768;-69
2022/07/21 08:46:50;;;;;;;11.70;10.80;;;27.60;69.90;;;;;;5065323;28;20458;-68
2022/07/21 08:49:22;;;;;;;10.83;10.00;;;27.60;69.50;;;;;;5060392;28;20448;-68
2022/07/21 08:51:53;;;;;;;10.87;9.97;;;27.50;69.80;;;;;;5064602;28;20868;-69
2022/07/21 08:54:22;;;;;;;9.60;8.80;;;27.50;69.10;;;;;;5055107;28;20470;-68
2022/07/21 08:56:55;;;;;;;9.73;8.83;;;27.60;69.50;;;;;;5060501;28;20488;-70
2022/07/21 08:59:24;;;;;;;9.53;8.77;;;27.70;69.00;;;;;;5062112;28;20444;-69
2022/07/21 09:01:59;;;;;;;11.60;10.70;;;27.80;68.60;;;;;;5068771;28;20452;-73
2022/07/21 09:04:29;;;;;;;11.50;10.70;;;27.90;68.40;;;;;;5070532;28;20533;-73
2022/07/21 09:07:07;;;;;;;10.23;9.33;;;27.90;67.80;;;;;;5057391;28;20794;-73
2022/07/21 09:09:36;;;;;;;11.00;9.93;;;28.00;68.10;;;;;;5058858;28;20456;-73
2022/07/21 09:12:07;;;;;;;11.07;10.20;;;28.00;67.70;;;;;;5065298;28;20539;-74
2022/07/21 09:14:36;;;;;;;11.60;10.70;;;28.10;67.60;;;;;;5056215;28;20457;-74
2022/07/21 09:17:06;;;;;;;12.43;11.40;;;28.00;67.60;;;;;;5061177;28;20521;-72
2022/07/21 09:19:38;;;;;;;12.33;11.13;;;27.90;67.40;;;;;;5064103;28;20460;-72
2022/07/21 09:22:12;;;;;;;12.20;11.20;;;27.90;67.40;;;;;;5050078;28;20454;-71
2022/07/21 09:24:41;;;;;;;9.47;8.67;;;27.90;67.70;;;;;;5064464;28;20478;-71
2022/07/21 09:27:13;;;;;;;10.30;9.40;;;27.80;66.10;;;;;;5059428;28;20490;-71
2022/07/21 09:29:45;;;;;;;10.50;9.60;;;27.80;65.50;;;;;;5061727;28;20501;-71
2022/07/21 09:32:22;;;;;;;9.87;9.17;;;27.80;66.20;;;;;;5057643;28;20459;-71
2022/07/21 09:34:52;;;;;;;10.27;9.40;;;27.90;66.10;;;;;;5050362;28;20487;-71
2022/07/21 09:37:21;;;;;;;9.30;8.40;;;27.90;66.30;;;;;;5063554;28;20454;-71
2022/07/21 09:39:52;;;;;;;10.50;9.50;;;27.90;66.00;;;;;;5066006;28;20461;-72
2022/07/21 09:42:28;;;;;;;10.07;9.20;;;27.90;65.80;;;;;;5053273;28;20454;-72
2022/07/21 09:44:58;;;;;;;11.27;10.37;;;28.00;65.90;;;;;;5052302;28;20469;-72
2022/07/21 09:47:29;;;;;;;11.00;10.17;;;28.10;65.70;;;;;;5063801;28;20457;-71
2022/07/21 09:49:58;;;;;;;12.67;11.70;;;28.10;66.00;;;;;;5061079;28;20516;-71
2022/07/21 09:52:48;;;;;;;10.60;9.80;;;28.00;66.00;;;;;;5063881;28;20482;-71
2022/07/21 09:55:20;;;;;;;10.10;9.40;;;27.90;65.70;;;;;;5059521;28;20542;-71
2022/07/21 09:57:58;;;;;;;11.90;10.80;;;27.80;66.10;;;;;;5062766;28;20499;-71
2022/07/21 10:00:26;;;;;;;11.70;10.80;;;27.90;66.10;;;;;;5059200;28;20936;-71
2022/07/21 10:02:56;;;;;;;11.23;10.43;;;28.00;66.20;;;;;;5061753;28;20449;-71
2022/07/21 10:05:25;;;;;;;9.10;8.40;;;28.10;65.90;;;;;;5059352;28;20568;-72
2022/07/21 10:08:04;;;;;;;9.40;8.60;;;28.20;65.90;;;;;;5054359;28;20924;-72
2022/07/21 10:10:35;;;;;;;9.90;9.10;;;28.30;65.60;;;;;;5060761;28;20441;-71
2022/07/21 10:13:27;;;;;;;11.43;10.30;;;28.30;65.50;;;;;;5059061;28;20454;-71
2022/07/21 10:15:55;;;;;;;9.70;8.87;;;28.30;65.30;;;;;;5061707;28;20485;-71
2022/07/21 10:18:37;;;;;;;9.37;8.60;;;28.40;65.10;;;;;;5057784;28;20474;-71
2022/07/21 10:21:53;;;;;;;10.77;9.87;;;28.50;64.90;;;;;;5056262;28;20447;-71
2022/07/21 10:24:22;;;;;;;9.83;9.10;;;28.50;64.40;;;;;;5063917;28;20520;-72
2022/07/21 10:27:07;;;;;;;9.37;8.63;;;28.50;65.00;;;;;;5064549;28;20510;-72
2022/07/21 10:29:55;;;;;;;9.03;8.30;;;28.50;63.20;;;;;;5055251;28;20513;-72
2022/07/21 10:32:33;;;;;;;7.87;7.27;;;28.40;62.40;;;;;;5059156;28;20773;-73
2022/07/21 10:35:04;;;;;;;7.50;6.97;;;28.30;62.50;;;;;;5054079;28;20541;-72
2022/07/21 10:37:48;;;;;;;7.73;7.13;;;28.20;62.10;;;;;;5058707;28;20506;-72
2022/07/21 10:40:38;;;;;;;8.57;7.50;;;28.30;63.00;;;;;;5053742;28;20533;-72
2022/07/21 10:43:40;;;;;;;8.77;8.07;;;28.40;62.20;;;;;;5058220;28;20457;-72
2022/07/21 10:46:59;;;;;;;8.27;7.57;;;28.20;62.30;;;;;;5005684;28;20464;-72
2022/07/21 10:49:43;;;;;;;9.27;8.53;;;28.10;61.90;;;;;;4993824;28;20456;-71
2022/07/21 10:52:49;;;;;;;8.20;7.40;;;28.10;61.80;;;;;;4982211;28;20483;-72
2022/07/21 10:55:26;;;;;;;7.63;7.03;;;28.30;61.50;;;;;;5061109;28;20959;-71
2022/07/21 10:58:16;;;;;;;7.73;7.13;;;28.30;61.80;;;;;;5064153;28;20526;-73
2022/07/21 11:00:47;;;;;;;7.97;7.37;;;28.30;61.70;;;;;;5062801;28;20915;-73
2022/07/21 11:03:23;;;;;;;8.10;7.50;;;28.20;61.40;;;;;;5064395;28;20510;-73
2022/07/21 11:09:37;;;;;;;7.40;6.77;;;28.20;61.30;;;;;;5043410;28;20465;-72
2022/07/21 11:12:20;;;;;;;8.10;7.40;;;28.10;61.00;;;;;;5054633;28;20523;-73
2022/07/21 11:14:49;;;;;;;7.50;6.97;;;28.10;61.00;;;;;;5055406;28;20565;-72
2022/07/21 11:17:30;;;;;;;7.47;6.87;;;28.10;60.90;;;;;;5056466;28;20545;-72
2022/07/21 11:20:00;;;;;;;7.60;6.90;;;28.20;61.00;;;;;;5055883;28;20455;-71
2022/07/21 11:22:30;;;;;;;7.60;6.90;;;28.20;60.60;;;;;;5054893;28;20863;-72
2022/07/21 11:25:00;;;;;;;7.30;6.70;;;28.10;60.80;;;;;;5059397;28;20524;-71
2022/07/21 11:27:33;;;;;;;8.03;7.33;;;28.20;60.50;;;;;;5056266;28;20519;-71
2022/07/21 11:30:05;;;;;;;7.80;7.10;;;28.10;60.70;;;;;;5059723;28;20458;-71
2022/07/21 11:32:34;;;;;;;7.60;7.00;;;28.00;60.80;;;;;;5053985;28;20498;-71
2022/07/21 11:35:06;;;;;;;7.83;7.33;;;28.10;61.00;;;;;;5055862;28;20458;-73
2022/07/21 11:37:37;;;;;;;8.10;7.60;;;28.20;59.70;;;;;;5059105;28;20523;-71
2022/07/21 11:40:08;;;;;;;7.83;7.20;;;28.30;60.30;;;;;;5063916;28;20455;-71
2022/07/21 11:42:37;;;;;;;8.00;7.40;;;28.30;60.50;;;;;;5061294;28;20774;-71
2022/07/21 11:45:08;;;;;;;8.53;7.77;;;28.30;60.60;;;;;;5057347;28;20477;-71
2022/07/21 11:47:37;;;;;;;9.13;8.43;;;28.40;60.50;;;;;;5053132;28;20853;-71
2022/07/21 11:50:09;;;;;;;7.70;7.00;;;28.50;60.50;;;;;;5047825;28;20584;-71
2022/07/21 11:52:40;;;;;;;7.57;6.97;;;28.50;60.50;;;;;;5059519;28;20536;-71
2022/07/21 11:55:12;;;;;;;8.63;7.83;;;28.60;60.40;;;;;;5065218;28;20448;-71
2022/07/21 11:57:42;;;;;;;7.80;7.10;;;28.70;60.10;;;;;;5059898;28;20449;-71
2022/07/21 12:03:52;;;;;;;8.30;7.70;;;28.60;59.70;;;;;;5054963;28;20462;-71
2022/07/21 12:06:23;;;;;;;7.70;7.07;;;28.50;60.30;;;;;;5065459;28;20827;-71
2022/07/21 12:08:51;;;;;;;7.90;7.40;;;28.50;60.20;;;;;;5062253;28;20453;-71
2022/07/21 12:11:19;;;;;;;7.67;7.00;;;28.50;60.10;;;;;;5066247;28;20535;-71
2022/07/21 12:13:58;;;;;;;8.20;7.60;;;28.60;60.10;;;;;;5058850;28;21008;-71
2022/07/21 12:16:27;;;;;;;8.87;8.20;;;28.70;59.70;;;;;;5050823;28;20455;-71
2022/07/21 12:19:11;;;;;;;9.07;8.27;;;28.60;59.90;;;;;;5054235;28;20483;-71
2022/07/21 12:21:49;;;;;;;10.13;9.10;;;28.60;59.90;;;;;;5048164;28;20461;-70
2022/07/21 12:24:19;;;;;;;12.13;9.77;;;28.60;58.30;;;;;;5044110;28;20491;-70
2022/07/21 12:26:47;;;;;;;11.87;9.40;;;28.50;58.90;;;;;;5051883;28;20498;-71
2022/07/21 12:29:26;;;;;;;11.53;9.00;;;28.60;59.90;;;;;;5052499;28;20462;-70
2022/07/21 12:31:54;;;;;;;42.57;14.73;;;29.00;58.90;;;;;;5052579;28;20501;-70
2022/07/21 12:34:24;;;;;;;10.10;9.40;;;29.20;57.90;;;;;;5057489;28;21064;-71
2022/07/21 12:36:58;;;;;;;13.83;9.77;;;29.50;55.90;;;;;;5055726;28;20450;-71
2022/07/21 12:42:30;;;;;;;8.43;7.83;;;29.60;56.20;;;;;;5016293;28;20454;-70
2022/07/21 12:44:59;;;;;;;10.50;9.60;;;29.70;56.90;;;;;;5015648;28;20484;-70
2022/07/21 12:47:29;;;;;;;9.63;8.87;;;29.90;56.70;;;;;;5034406;28;20515;-70
2022/07/21 12:50:00;;;;;;;11.20;10.37;;;30.00;56.40;;;;;;5055036;28;20493;-71
2022/07/21 12:52:42;;;;;;;9.60;8.87;;;30.00;56.10;;;;;;5050466;28;20483;-70
2022/07/21 12:55:10;;;;;;;12.80;9.00;;;30.10;55.80;;;;;;5055197;28;20494;-70
2022/07/21 12:57:39;;;;;;;9.53;8.83;;;30.30;55.40;;;;;;5059739;28;20453;-70
2022/07/21 13:00:08;;;;;;;9.60;8.90;;;30.40;55.50;;;;;;5053450;28;20964;-70
2022/07/21 13:02:47;;;;;;;9.50;8.80;;;30.30;55.60;;;;;;5059564;28;20462;-70
2022/07/21 13:05:15;;;;;;;12.20;9.30;;;30.20;55.30;;;;;;5055980;28;20502;-70
2022/07/21 13:07:45;;;;;;;9.50;8.70;;;30.20;56.00;;;;;;5049952;28;20457;-70
2022/07/21 13:10:14;;;;;;;10.03;9.03;;;30.20;55.80;;;;;;5054875;28;20956;-71